Terminal Aerodrome Forecast
Issued by NWS

Home | Current Version | Previous Version | Text Only | Print | Product List | Glossary On
Versions: 1 2 3 4 5 6 7 8 9 10 11 12 13 14 15 16 17 18 19 20 21
000
FTUS41 KPHI 272300
TAFPNE
TAF
KPNE 272320Z 2800/2824 30008KT P6SM SCT050
      TEMPO 2804/2808 BKN050
     FM281400 31011G21KT P6SM FEW050
     FM282200 32007KT P6SM BKN150=

USA.gov is the U.S. government's official web portal to all federal, state and local government web resources and services.